Time;durP1;ratioP1;P1;durP2;ratioP2;P2;SDS_P1;SDS_P2;PMS_P1;PMS_P2;Temp;Humidity;BMP_temperature;BMP_pressure;BME280_temperature;BME280_humidity;BME280_pressure;Samples;Min_cycle;Max_cycle;Signal;HPM_P1;HPM_P2
2023/07/24 00:00:14;;;;;;;11.93;6.65;;;;;;;20.95;55.89;94197.50;5064087;28;20021;-82
2023/07/24 00:02:40;;;;;;;13.88;7.30;;;;;;;20.90;56.64;94198.59;5064185;28;20069;-82
2023/07/24 00:05:06;;;;;;;12.90;6.78;;;;;;;20.84;57.85;94200.06;5064235;28;20023;-82
2023/07/24 00:07:31;;;;;;;14.82;7.03;;;;;;;20.88;57.76;94197.41;5063996;28;20085;-82
2023/07/24 00:09:56;;;;;;;12.02;7.13;;;;;;;20.80;58.44;94196.53;5064068;28;20315;-84
2023/07/24 00:12:23;;;;;;;13.10;7.03;;;;;;;20.85;58.40;94190.81;5063985;28;20033;-82
2023/07/24 00:14:48;;;;;;;12.05;6.85;;;;;;;20.83;58.09;94199.28;5064153;28;20216;-81
2023/07/24 00:17:13;;;;;;;13.27;6.90;;;;;;;20.76;58.37;94187.59;5063840;28;20028;-83
2023/07/24 00:19:39;;;;;;;16.17;7.95;;;;;;;20.70;58.78;94189.06;5064141;28;20041;-83
2023/07/24 00:22:05;;;;;;;14.50;7.95;;;;;;;20.73;59.10;94193.75;5063833;28;20056;-83
2023/07/24 00:24:31;;;;;;;12.10;7.75;;;;;;;20.72;59.06;94184.88;5062589;28;20029;-82
2023/07/24 00:26:57;;;;;;;14.45;8.25;;;;;;;20.72;58.81;94192.19;5063905;28;20185;-83
2023/07/24 00:29:23;;;;;;;14.32;6.97;;;;;;;20.64;59.36;94184.00;5062617;28;20020;-83
2023/07/24 00:31:48;;;;;;;14.73;7.45;;;;;;;20.66;59.53;94185.53;5062391;28;20039;-82
2023/07/24 00:34:14;;;;;;;16.15;7.68;;;;;;;20.62;60.10;94191.72;5062841;28;20361;-83
2023/07/24 00:36:39;;;;;;;12.88;7.05;;;;;;;20.59;59.82;94183.53;5062258;28;20338;-82
2023/07/24 00:39:05;;;;;;;13.18;7.70;;;;;;;20.55;60.26;94198.94;5062825;28;20307;-83
2023/07/24 00:41:30;;;;;;;13.05;7.25;;;;;;;20.48;60.93;94180.69;5062178;28;20051;-83
2023/07/24 00:43:56;;;;;;;16.55;7.82;;;;;;;20.42;60.66;94184.84;5063536;28;20206;-82
2023/07/24 00:46:21;;;;;;;14.10;7.70;;;;;;;20.37;60.21;94187.88;5063463;28;20032;-83
2023/07/24 00:48:47;;;;;;;15.75;8.38;;;;;;;20.41;59.25;94189.50;5063391;28;20035;-82
2023/07/24 00:51:13;;;;;;;13.63;7.53;;;;;;;20.44;59.46;94194.16;5063362;28;20033;-83
2023/07/24 00:53:39;;;;;;;14.30;7.60;;;;;;;20.44;58.82;94182.56;5063081;28;20028;-83
2023/07/24 00:56:05;;;;;;;12.77;7.25;;;;;;;20.44;56.87;94182.56;5063366;28;20100;-83
2023/07/24 00:58:31;;;;;;;18.60;8.02;;;;;;;20.44;55.69;94179.84;5063427;28;20021;-83
2023/07/24 01:00:56;;;;;;;18.20;8.25;;;;;;;20.38;57.06;94184.03;5063576;28;20323;-83
2023/07/24 01:03:31;;;;;;;17.80;8.07;;;;;;;20.28;58.60;94174.63;5063171;28;20359;-83
2023/07/24 01:05:57;;;;;;;16.95;7.88;;;;;;;20.24;58.06;94176.50;5063145;28;20025;-83
2023/07/24 01:08:23;;;;;;;18.67;8.90;;;;;;;20.18;59.11;94173.31;5063227;28;20230;-83
2023/07/24 01:10:48;;;;;;;15.57;8.02;;;;;;;20.18;58.50;94176.03;5063035;28;20032;-82
2023/07/24 01:13:14;;;;;;;18.23;8.27;;;;;;;20.15;58.34;94174.06;5063099;28;20036;-84
2023/07/24 01:15:48;;;;;;;14.50;7.55;;;;;;;20.15;58.24;94176.78;5063046;28;20025;-83
2023/07/24 01:18:17;;;;;;;18.02;8.43;;;;;;;20.17;58.15;94176.38;5062812;28;20025;-83
2023/07/24 01:20:55;;;;;;;15.48;8.10;;;;;;;20.03;58.43;94174.28;5062993;28;20319;-84
2023/07/24 01:23:23;;;;;;;17.23;8.77;;;;;;;20.05;58.13;94163.88;5062882;28;20025;-83
2023/07/24 01:25:51;;;;;;;15.95;8.25;;;;;;;20.06;58.29;94160.00;5061616;28;20037;-83
2023/07/24 01:28:17;;;;;;;16.92;9.00;;;;;;;19.93;59.10;94164.09;5062812;28;20287;-82
2023/07/24 01:30:42;;;;;;;21.08;9.07;;;;;;;19.88;59.62;94156.28;5061790;28;20051;-82
2023/07/24 01:33:08;;;;;;;18.55;8.65;;;;;;;19.84;59.73;94161.63;5062612;28;20232;-82
2023/07/24 01:35:33;;;;;;;16.20;8.85;;;;;;;19.83;59.36;94155.44;5062718;28;20029;-82
2023/07/24 01:38:00;;;;;;;15.90;8.30;;;;;;;19.84;59.60;94161.63;5062607;28;20063;-83
2023/07/24 01:40:25;;;;;;;18.15;9.57;;;;;;;19.84;59.61;94151.63;5062794;28;20292;-83
2023/07/24 01:42:51;;;;;;;19.55;9.88;;;;;;;19.79;59.33;94154.63;5062732;28;20025;-82
2023/07/24 01:45:17;;;;;;;14.00;8.25;;;;;;;19.75;59.27;94174.66;5062540;28;20044;-82
2023/07/24 01:47:42;;;;;;;17.55;9.00;;;;;;;19.68;57.17;94175.28;5062613;28;20025;-82
2023/07/24 01:50:08;;;;;;;19.88;9.70;;;;;;;19.51;57.86;94187.38;5062391;28;20024;-82
2023/07/24 01:52:34;;;;;;;16.45;8.13;;;;;;;19.50;56.91;94185.03;5066508;28;20024;-82
2023/07/24 01:54:59;;;;;;;18.13;9.40;;;;;;;19.53;57.19;94181.63;5066655;28;20044;-83
2023/07/24 01:57:24;;;;;;;16.75;9.73;;;;;;;19.48;57.54;94184.59;5066803;28;20070;-82
2023/07/24 01:59:50;;;;;;;19.20;10.45;;;;;;;19.35;58.48;94184.78;5066427;28;20374;-82
2023/07/24 02:02:16;;;;;;;20.08;10.63;;;;;;;19.36;58.16;94183.66;5066579;28;20016;-83
2023/07/24 02:04:41;;;;;;;15.88;8.95;;;;;;;19.30;58.77;94185.09;5066511;28;20112;-82
2023/07/24 02:07:06;;;;;;;18.48;9.93;;;;;;;19.34;58.56;94180.53;5066256;28;20029;-83
2023/07/24 02:09:32;;;;;;;20.23;9.70;;;;;;;19.35;58.89;94175.91;5066387;28;20048;-82
2023/07/24 02:11:57;;;;;;;19.02;9.65;;;;;;;19.37;59.16;94174.41;5066392;28;20257;-82
2023/07/24 02:14:24;;;;;;;20.90;10.65;;;;;;;19.42;59.17;94168.72;5066228;28;20372;-83
2023/07/24 02:16:49;;;;;;;21.33;10.18;;;;;;;19.48;58.87;94171.88;5066328;28;20029;-83
2023/07/24 02:19:14;;;;;;;18.75;10.15;;;;;;;19.52;57.94;94167.31;5066066;28;20033;-83
2023/07/24 02:21:40;;;;;;;18.95;10.13;;;;;;;19.43;57.76;94162.16;5066137;28;20025;-81
2023/07/24 02:24:06;;;;;;;21.45;10.75;;;;;;;19.44;57.49;94169.13;5066069;28;20029;-81
2023/07/24 02:26:31;;;;;;;19.27;10.05;;;;;;;19.46;58.78;94174.19;5065869;28;20048;-81
2023/07/24 02:28:57;;;;;;;20.52;10.10;;;;;;;19.40;58.26;94176.41;5066093;28;20032;-82
2023/07/24 02:31:22;;;;;;;19.38;9.73;;;;;;;19.36;58.11;94167.44;5066076;28;20044;-81
2023/07/24 02:33:48;;;;;;;23.75;9.57;;;;;;;19.36;58.55;94164.75;5065934;28;20043;-83
2023/07/24 02:36:13;;;;;;;23.45;10.60;;;;;;;19.41;58.59;94177.94;5064704;28;20021;-82
2023/07/24 02:38:39;;;;;;;26.27;11.68;;;;;;;19.39;58.97;94155.91;5064395;28;20025;-82
2023/07/24 02:41:04;;;;;;;18.83;9.85;;;;;;;19.41;59.34;94160.94;5064641;28;20025;-83
2023/07/24 02:43:30;;;;;;;22.83;9.80;;;;;;;19.38;59.75;94161.69;5065614;28;20020;-82
2023/07/24 02:46:00;;;;;;;19.13;9.35;;;;;;;19.40;59.71;94165.59;5065923;28;20040;-81
2023/07/24 02:48:26;;;;;;;21.48;10.85;;;;;;;19.37;59.99;94166.28;5065691;28;20017;-81
2023/07/24 02:50:51;;;;;;;20.98;10.40;;;;;;;19.35;57.88;94173.97;5064728;28;20021;-84
2023/07/24 02:53:17;;;;;;;21.52;10.55;;;;;;;19.32;57.36;94169.31;5065589;28;20017;-83
2023/07/24 02:55:43;;;;;;;21.83;10.48;;;;;;;19.17;58.35;94165.59;5065505;28;20033;-84
2023/07/24 02:58:09;;;;;;;19.15;10.90;;;;;;;19.17;58.55;94162.09;5065801;28;20040;-83
2023/07/24 03:00:34;;;;;;;20.42;10.95;;;;;;;19.16;59.02;94161.31;5064442;28;20035;-84
2023/07/24 03:03:00;;;;;;;35.95;11.10;;;;;;;19.13;59.16;94159.34;5063854;28;20043;-82
2023/07/24 03:05:25;;;;;;;22.90;11.32;;;;;;;19.18;59.18;94158.25;5065537;28;20025;-83
2023/07/24 03:07:50;;;;;;;21.85;10.75;;;;;;;19.20;59.05;94155.97;5065544;28;20024;-83
2023/07/24 03:10:16;;;;;;;22.35;10.75;;;;;;;19.22;59.12;94159.88;5065445;28;20028;-84
2023/07/24 03:12:41;;;;;;;36.80;11.90;;;;;;;19.17;59.00;94157.50;5065357;28;20025;-83
2023/07/24 03:15:07;;;;;;;29.05;10.85;;;;;;;19.18;59.62;94153.63;5065404;28;20234;-84
2023/07/24 03:17:33;;;;;;;21.85;11.07;;;;;;;19.16;58.85;94150.50;5065106;28;20100;-83
2023/07/24 03:19:59;;;;;;;29.38;12.93;;;;;;;19.09;59.13;94155.00;5065324;28;20029;-82
2023/07/24 03:22:24;;;;;;;30.67;12.88;;;;;;;18.98;58.90;94155.59;5065199;28;20350;-81
2023/07/24 03:24:50;;;;;;;29.67;14.85;;;;;;;19.04;58.99;94154.16;5065020;28;20041;-82
2023/07/24 03:27:15;;;;;;;26.30;10.73;;;;;;;19.09;59.50;94155.81;5064973;28;20021;-82
2023/07/24 03:29:41;;;;;;;21.80;11.52;;;;;;;19.10;59.10;94162.75;5064051;28;20025;-84
2023/07/24 03:32:07;;;;;;;24.77;10.75;;;;;;;19.09;59.19;94165.81;5065504;28;20025;-85
2023/07/24 03:34:32;;;;;;;20.80;10.90;;;;;;;19.07;57.07;94168.09;5065209;28;20040;-85
2023/07/24 03:36:58;;;;;;;24.17;11.68;;;;;;;19.03;56.57;94159.91;5065038;28;20033;-85
2023/07/24 03:39:23;;;;;;;25.02;11.88;;;;;;;19.00;57.18;94163.34;5064363;28;20021;-85
2023/07/24 03:41:49;;;;;;;22.63;9.82;;;;;;;18.94;57.21;94173.66;5065084;28;20036;-85
2023/07/24 03:44:14;;;;;;;18.92;10.30;;;;;;;18.96;58.11;94171.38;5065219;28;20032;-85
2023/07/24 03:46:39;;;;;;;22.77;10.77;;;;;;;18.90;59.40;94164.72;5064890;28;20017;-85
2023/07/24 03:49:05;;;;;;;19.15;10.55;;;;;;;18.81;60.35;94167.66;5064964;28;20052;-85
2023/07/24 03:51:30;;;;;;;20.15;10.82;;;;;;;18.86;60.92;94165.78;5064760;28;20196;-86
2023/07/24 03:53:56;;;;;;;23.65;11.52;;;;;;;18.91;60.95;94160.88;5065095;28;20055;-85
2023/07/24 03:56:21;;;;;;;20.27;10.55;;;;;;;19.01;60.72;94160.28;5064792;28;20100;-85
2023/07/24 03:58:47;;;;;;;25.05;10.70;;;;;;;19.04;61.55;94159.56;5064741;28;20226;-84
2023/07/24 04:01:12;;;;;;;25.38;10.95;;;;;;;19.06;62.08;94156.50;5064917;28;20021;-83
2023/07/24 04:03:38;;;;;;;17.35;9.68;;;;;;;19.13;62.44;94170.16;5064710;28;20088;-84
2023/07/24 04:06:03;;;;;;;24.73;10.60;;;;;;;19.19;62.69;94165.22;5064798;28;20008;-84
2023/07/24 04:08:29;;;;;;;20.92;9.70;;;;;;;19.21;62.67;94171.84;5064447;28;20315;-82
2023/07/24 04:10:56;;;;;;;17.98;10.30;;;;;;;19.23;63.48;94172.25;5064149;28;20013;-82
2023/07/24 04:13:24;;;;;;;18.35;10.13;;;;;;;19.23;63.27;94187.66;5064032;28;20047;-83
2023/07/24 04:16:02;;;;;;;21.95;10.18;;;;;;;19.22;63.42;94191.53;5066831;28;20032;-83
2023/07/24 04:18:35;;;;;;;19.05;9.80;;;;;;;19.22;64.28;94191.53;5066244;28;20025;-84
2023/07/24 04:21:01;;;;;;;21.70;9.82;;;;;;;19.24;64.66;94187.31;5064789;28;20039;-82
2023/07/24 04:23:26;;;;;;;17.05;9.70;;;;;;;19.30;65.67;94198.63;5064494;28;20025;-84
2023/07/24 04:25:52;;;;;;;18.02;9.63;;;;;;;19.36;65.39;94194.47;5064298;28;20323;-85
2023/07/24 04:28:17;;;;;;;15.38;9.30;;;;;;;19.43;65.01;94183.00;5063785;28;20031;-82
2023/07/24 04:30:42;;;;;;;17.30;8.90;;;;;;;19.51;64.92;94175.78;5063738;28;20032;-82
2023/07/24 04:33:08;;;;;;;19.20;9.13;;;;;;;19.58;65.28;94181.28;5063804;28;20032;-82
2023/07/24 04:35:33;;;;;;;20.88;9.75;;;;;;;19.60;65.62;94177.09;5063626;28;20032;-82
2023/07/24 04:37:59;;;;;;;20.50;9.60;;;;;;;19.71;65.00;94173.81;5064348;28;20029;-83
2023/07/24 04:40:24;;;;;;;15.70;8.88;;;;;;;19.77;65.74;94173.13;5063552;28;20044;-82
2023/07/24 04:42:50;;;;;;;18.98;9.25;;;;;;;19.80;65.77;94175.13;5063611;28;20059;-83
2023/07/24 04:45:15;;;;;;;17.13;9.80;;;;;;;19.84;64.94;94180.56;5063613;28;20017;-83
2023/07/24 04:47:41;;;;;;;17.48;9.18;;;;;;;19.92;64.93;94182.22;5063624;28;20037;-84
2023/07/24 04:50:07;;;;;;;18.23;9.35;;;;;;;19.97;64.41;94181.16;5063662;28;20028;-83
2023/07/24 04:52:33;;;;;;;29.80;10.95;;;;;;;20.00;63.61;94185.81;5063394;28;20281;-85
2023/07/24 04:54:58;;;;;;;25.42;11.45;;;;;;;20.04;62.46;94183.94;5063587;28;20052;-83
2023/07/24 04:57:23;;;;;;;20.08;11.38;;;;;;;20.11;62.06;94188.66;5063293;28;20028;-86
2023/07/24 04:59:49;;;;;;;28.95;11.65;;;;;;;20.09;61.48;94189.06;5063821;28;20278;-86
2023/07/24 05:02:14;;;;;;;22.83;11.82;;;;;;;20.14;60.75;94190.66;5063565;28;20028;-86
2023/07/24 05:04:41;;;;;;;26.58;11.50;;;;;;;20.21;61.19;94194.25;5063798;28;20323;-85
2023/07/24 05:07:06;;;;;;;28.27;11.82;;;;;;;20.30;61.92;94201.31;5063898;28;20019;-86
2023/07/24 05:09:32;;;;;;;20.30;10.75;;;;;;;20.34;61.91;94186.69;5063794;28;20094;-86
2023/07/24 05:11:57;;;;;;;30.00;12.88;;;;;;;20.36;62.01;94192.50;5062655;28;20047;-85
2023/07/24 05:14:23;;;;;;;23.73;10.75;;;;;;;20.37;62.43;94191.38;5063591;28;20053;-78
2023/07/24 05:16:49;;;;;;;22.02;10.48;;;;;;;20.22;62.13;94200.44;5062978;28;20028;-79
2023/07/24 05:19:14;;;;;;;25.48;12.10;;;;;;;20.11;62.58;94189.47;5062865;28;20028;-79
2023/07/24 05:21:40;;;;;;;27.60;10.68;;;;;;;20.27;62.37;94191.22;5060137;28;20028;-79
2023/07/24 05:24:05;;;;;;;19.67;11.93;;;;;;;20.39;62.45;94185.56;5059768;28;20215;-79
2023/07/24 05:26:31;;;;;;;31.02;11.15;;;;;;;20.42;61.30;94195.69;5060798;28;20025;-80
2023/07/24 05:28:56;;;;;;;25.65;11.93;;;;;;;20.47;61.46;94195.34;5061012;28;20377;-80
2023/07/24 05:31:22;;;;;;;24.85;10.23;;;;;;;20.54;60.85;94189.25;5060950;28;20096;-80
2023/07/24 05:33:47;;;;;;;29.08;11.45;;;;;;;20.57;60.06;94191.22;5061570;28;20039;-80
2023/07/24 05:36:13;;;;;;;22.65;11.27;;;;;;;20.55;60.24;94188.88;5062822;28;20323;-80
2023/07/24 05:38:38;;;;;;;25.20;11.57;;;;;;;20.60;61.16;94185.88;5062792;28;20024;-80
2023/07/24 05:41:04;;;;;;;31.05;11.40;;;;;;;20.78;61.20;94188.81;5062928;28;20036;-80
2023/07/24 05:43:30;;;;;;;28.50;11.98;;;;;;;20.92;60.40;94184.69;5062603;28;20198;-80
2023/07/24 05:45:57;;;;;;;27.65;11.02;;;;;;;21.07;59.08;94180.97;5063151;28;20017;-80
2023/07/24 05:48:23;;;;;;;27.38;11.20;;;;;;;21.13;59.07;94182.19;5061559;28;20024;-80
2023/07/24 05:50:49;;;;;;;25.63;11.23;;;;;;;21.22;58.40;94171.03;5062701;28;20338;-80
2023/07/24 05:53:15;;;;;;;23.95;11.40;;;;;;;21.31;58.03;94163.41;5062598;28;20062;-80
2023/07/24 05:55:42;;;;;;;31.45;11.70;;;;;;;21.40;57.53;94174.69;5062386;28;20044;-79
2023/07/24 05:58:07;;;;;;;31.45;11.70;;;;;;;21.52;57.06;94179.09;5062579;28;20024;-79
2023/07/24 06:00:33;;;;;;;24.70;10.10;;;;;;;21.66;56.77;94173.00;5062606;28;20368;-80
2023/07/24 06:02:59;;;;;;;23.92;11.43;;;;;;;21.78;56.51;94159.16;5062645;28;20341;-79
2023/07/24 06:05:24;;;;;;;21.27;10.95;;;;;;;21.99;56.03;94157.72;5062632;28;20017;-79
2023/07/24 06:07:49;;;;;;;22.20;10.65;;;;;;;22.13;54.46;94154.31;5062489;28;20433;-80
2023/07/24 06:10:15;;;;;;;28.50;11.93;;;;;;;22.19;54.12;94155.53;5062384;28;20032;-80
2023/07/24 06:12:40;;;;;;;22.88;10.77;;;;;;;22.32;54.24;94161.44;5062179;28;20338;-80
2023/07/24 06:15:06;;;;;;;23.20;11.07;;;;;;;22.44;53.12;94161.88;5062550;28;20031;-80
2023/07/24 06:17:32;;;;;;;24.40;11.60;;;;;;;22.51;51.42;94163.84;5062468;28;20025;-79
2023/07/24 06:19:57;;;;;;;30.75;12.02;;;;;;;22.35;51.20;94157.97;5062144;28;20094;-79
2023/07/24 06:22:23;;;;;;;42.10;12.93;;;;;;;22.40;50.86;94163.03;5062227;28;20395;-80
2023/07/24 06:24:49;;;;;;;24.67;11.63;;;;;;;22.38;50.83;94174.25;5062303;28;20234;-79
2023/07/24 06:27:15;;;;;;;31.52;11.82;;;;;;;22.41;50.37;94164.59;5061049;28;20028;-80
2023/07/24 06:29:40;;;;;;;27.63;10.77;;;;;;;22.64;50.23;94161.56;5062206;28;20032;-80
2023/07/24 06:32:38;;;;;;;32.05;11.98;;;;;;;22.74;50.29;94165.50;5062173;28;20021;-80
2023/07/24 06:35:04;;;;;;;32.45;11.48;;;;;;;22.75;49.85;94165.09;5038240;28;20090;-79
2023/07/24 06:37:29;;;;;;;23.15;12.30;;;;;;;22.80;49.96;94174.81;5063905;28;20378;-80
2023/07/24 06:39:55;;;;;;;32.00;11.48;;;;;;;22.82;50.29;94164.34;5065770;28;20227;-79
2023/07/24 06:42:20;;;;;;;23.55;11.25;;;;;;;22.89;50.28;94164.34;5065619;28;20020;-79
2023/07/24 06:44:45;;;;;;;19.65;10.48;;;;;;;22.97;50.41;94165.94;5064781;28;20029;-79
2023/07/24 06:47:11;;;;;;;23.08;10.32;;;;;;;23.10;50.45;94157.44;5065789;28;20192;-76
2023/07/24 06:49:36;;;;;;;32.47;11.15;;;;;;;23.11;50.06;94159.00;5065804;28;20177;-77
2023/07/24 06:52:02;;;;;;;23.83;11.57;;;;;;;23.14;50.03;94158.22;5065405;28;20025;-77
2023/07/24 06:54:27;;;;;;;28.13;10.75;;;;;;;23.16;51.53;94156.69;5064447;28;20036;-79
2023/07/24 06:56:53;;;;;;;22.85;10.52;;;;;;;23.31;50.67;94154.00;5065368;28;20025;-76
2023/07/24 06:59:18;;;;;;;27.35;11.25;;;;;;;23.36;50.32;94161.75;5065609;28;20020;-76
2023/07/24 07:01:43;;;;;;;21.63;10.55;;;;;;;23.28;49.97;94166.41;5064189;28;20168;-76
2023/07/24 07:04:09;;;;;;;16.38;10.25;;;;;;;23.32;50.41;94167.19;5065530;28;20312;-75
2023/07/24 07:06:34;;;;;;;18.35;10.05;;;;;;;23.32;50.30;94166.41;5065574;28;20036;-75
2023/07/24 07:09:00;;;;;;;28.52;10.25;;;;;;;23.34;50.40;94166.81;5065292;28;20223;-75
2023/07/24 07:11:25;;;;;;;21.35;10.13;;;;;;;23.41;50.58;94175.00;5065283;28;20038;-76
2023/07/24 07:13:50;;;;;;;23.80;10.98;;;;;;;23.32;50.77;94175.34;5063926;28;20025;-75
2023/07/24 07:16:16;;;;;;;25.08;12.13;;;;;;;23.44;51.06;94174.97;5065253;28;20025;-75
2023/07/24 07:18:42;;;;;;;29.38;11.30;;;;;;;23.55;51.52;94166.03;5065328;28;20020;-76
2023/07/24 07:21:07;;;;;;;20.33;10.00;;;;;;;23.66;51.42;94164.09;5063957;28;20394;-75
2023/07/24 07:23:33;;;;;;;17.58;10.00;;;;;;;23.79;52.05;94164.50;5065198;28;20311;-76
2023/07/24 07:25:58;;;;;;;19.90;9.90;;;;;;;23.86;50.98;94159.06;5065224;28;20021;-76
2023/07/24 07:28:23;;;;;;;21.83;10.77;;;;;;;23.92;50.43;94162.19;5065241;28;20239;-77
2023/07/24 07:30:49;;;;;;;25.35;11.23;;;;;;;24.00;50.34;94164.50;5065062;28;20051;-73
2023/07/24 07:33:14;;;;;;;23.83;11.45;;;;;;;23.91;50.23;94155.94;5064987;28;20033;-75
2023/07/24 07:35:40;;;;;;;24.30;10.95;;;;;;;23.94;49.80;94151.69;5063717;28;20311;-76
2023/07/24 07:38:05;;;;;;;22.55;11.20;;;;;;;23.94;50.33;94160.63;5064843;28;20025;-76
2023/07/24 07:40:30;;;;;;;20.23;11.30;;;;;;;24.00;50.35;94161.00;5064940;28;20021;-76
2023/07/24 07:42:57;;;;;;;23.75;10.82;;;;;;;24.05;49.62;94152.44;5065017;28;20017;-76
2023/07/24 07:45:23;;;;;;;21.20;10.07;;;;;;;24.16;50.33;94160.56;5064851;28;20078;-73
2023/07/24 07:47:49;;;;;;;32.42;11.85;;;;;;;24.27;50.00;94155.88;5064080;28;20020;-75
2023/07/24 07:50:14;;;;;;;20.90;9.95;;;;;;;24.32;48.91;94157.41;5063991;28;20025;-74
2023/07/24 07:52:40;;;;;;;24.75;10.88;;;;;;;24.38;48.84;94162.09;5064499;28;20029;-76
2023/07/24 07:55:06;;;;;;;27.60;11.45;;;;;;;24.49;48.65;94156.59;5064361;28;20047;-76
2023/07/24 07:57:37;;;;;;;22.55;11.07;;;;;;;24.59;48.02;94155.81;5064516;28;20085;-76
2023/07/24 08:00:04;;;;;;;22.63;11.00;;;;;;;24.65;48.29;94152.66;5064470;28;20048;-77
2023/07/24 08:02:31;;;;;;;21.83;10.65;;;;;;;24.70;48.02;94153.03;5064363;28;20067;-75
2023/07/24 08:04:57;;;;;;;20.25;9.40;;;;;;;24.89;48.67;94145.53;5063368;28;20028;-75
2023/07/24 08:07:23;;;;;;;24.90;10.60;;;;;;;25.07;47.76;94157.13;5064265;28;20208;-76
2023/07/24 08:09:48;;;;;;;23.73;10.48;;;;;;;25.23;47.06;94159.41;5064318;28;20020;-76
2023/07/24 08:12:14;;;;;;;19.35;9.13;;;;;;;25.28;47.24;94156.25;5064391;28;20017;-74
2023/07/24 08:14:40;;;;;;;18.50;9.32;;;;;;;25.39;47.11;94151.50;5063860;28;20045;-76
2023/07/24 08:17:05;;;;;;;22.77;10.80;;;;;;;25.47;46.54;94146.75;5062682;28;20025;-74
2023/07/24 08:19:31;;;;;;;17.15;9.35;;;;;;;25.53;47.13;94144.38;5063600;28;20036;-77
2023/07/24 08:21:56;;;;;;;17.45;9.82;;;;;;;25.58;46.13;94136.53;5064059;28;20097;-73
2023/07/24 08:24:21;;;;;;;31.73;10.18;;;;;;;25.76;45.98;94149.25;5064045;28;20021;-76
2023/07/24 08:26:47;;;;;;;20.92;9.82;;;;;;;25.92;44.93;94137.84;5063940;28;20028;-78
2023/07/24 08:29:12;;;;;;;23.50;10.57;;;;;;;25.99;44.86;94135.03;5063772;28;20056;-76
2023/07/24 08:31:38;;;;;;;21.50;10.02;;;;;;;26.15;44.41;94129.78;5063747;28;20048;-73
2023/07/24 08:34:03;;;;;;;25.38;9.55;;;;;;;26.31;43.37;94123.00;5063785;28;20048;-74
2023/07/24 08:36:29;;;;;;;21.60;9.70;;;;;;;26.44;44.46;94124.03;5063710;28;20025;-75
2023/07/24 08:38:55;;;;;;;17.20;9.70;;;;;;;26.50;43.35;94122.41;5063904;28;20032;-76
2023/07/24 08:41:20;;;;;;;22.23;9.40;;;;;;;26.59;43.31;94125.44;5062420;28;20021;-74
2023/07/24 08:43:46;;;;;;;15.85;9.52;;;;;;;26.74;42.89;94120.53;5062426;28;20237;-77
2023/07/24 08:46:11;;;;;;;26.73;9.27;;;;;;;26.75;42.51;94121.34;5063788;28;20080;-74
2023/07/24 08:48:39;;;;;;;27.45;9.75;;;;;;;26.71;42.21;94126.09;5063440;28;20029;-73
2023/07/24 08:51:06;;;;;;;24.08;10.38;;;;;;;26.88;43.09;94122.31;5063468;28;20020;-74
2023/07/24 08:53:36;;;;;;;25.33;9.90;;;;;;;27.05;42.78;94120.56;5063241;28;20021;-74
2023/07/24 08:56:06;;;;;;;18.88;8.98;;;;;;;27.18;41.30;94121.50;5063433;28;20235;-74
2023/07/24 08:58:33;;;;;;;19.20;9.35;;;;;;;27.31;42.21;94112.75;5063531;28;20035;-74
2023/07/24 09:00:59;;;;;;;23.95;10.93;;;;;;;27.44;40.06;94115.69;5061820;28;20028;-72
2023/07/24 09:03:25;;;;;;;14.13;9.27;;;;;;;27.53;40.26;94113.97;5063533;28;20025;-78
2023/07/24 09:05:51;;;;;;;22.38;9.32;;;;;;;27.59;40.33;94112.31;5063601;28;20079;-77
2023/07/24 09:08:16;;;;;;;20.02;9.95;;;;;;;27.70;40.80;94116.84;5063502;28;20032;-76
2023/07/24 09:10:42;;;;;;;18.58;8.57;;;;;;;27.81;40.44;94112.72;5063380;28;20017;-76
2023/07/24 09:13:11;;;;;;;21.75;8.95;;;;;;;27.91;39.43;94115.75;5063090;28;20021;-76
2023/07/24 09:15:42;;;;;;;20.83;9.27;;;;;;;27.96;39.64;94101.53;5063073;28;20029;-76
2023/07/24 09:18:07;;;;;;;27.35;10.48;;;;;;;27.97;39.20;94109.34;5063181;28;20291;-77
2023/07/24 09:20:40;;;;;;;17.63;10.25;;;;;;;28.04;39.82;94108.44;5063150;28;20031;-76
2023/07/24 09:23:08;;;;;;;18.38;9.32;;;;;;;28.17;40.19;94111.34;5063098;28;20307;-78
2023/07/24 09:25:34;;;;;;;31.20;10.00;;;;;;;28.22;38.78;94105.38;5063186;28;20032;-77
2023/07/24 09:28:00;;;;;;;22.17;9.82;;;;;;;28.16;38.41;94093.34;5063279;28;20016;-77
2023/07/24 09:30:26;;;;;;;21.00;11.02;;;;;;;28.22;38.68;94097.16;5063318;28;20116;-76
2023/07/24 09:32:53;;;;;;;23.98;10.57;;;;;;;28.28;38.05;94095.47;5063109;28;20095;-77
2023/07/24 09:35:20;;;;;;;19.25;9.43;;;;;;;28.24;36.92;94088.53;5062909;28;20063;-76
2023/07/24 09:37:46;;;;;;;20.73;10.52;;;;;;;28.23;37.45;94087.75;5062899;28;20021;-77
2023/07/24 09:40:13;;;;;;;25.67;10.70;;;;;;;28.25;37.10;94077.16;5062853;28;20437;-76
2023/07/24 09:42:42;;;;;;;21.60;9.95;;;;;;;28.28;37.07;94072.78;5062898;28;20037;-75
2023/07/24 09:45:08;;;;;;;17.48;9.63;;;;;;;28.38;37.71;94060.81;5062550;28;20040;-75
2023/07/24 09:47:35;;;;;;;17.48;9.55;;;;;;;28.48;36.75;94053.59;5062723;28;20032;-75
2023/07/24 09:50:05;;;;;;;18.55;8.82;;;;;;;28.63;37.66;94054.09;5063047;28;20016;-76
2023/07/24 09:52:31;;;;;;;15.77;9.70;;;;;;;28.79;40.05;94045.88;5063064;28;20215;-78
2023/07/24 09:55:10;;;;;;;19.55;9.43;;;;;;;28.92;38.29;94046.78;5061828;28;20037;-76
2023/07/24 09:57:37;;;;;;;29.15;10.80;;;;;;;29.03;38.06;94059.47;5062585;28;20059;-76
2023/07/24 10:00:03;;;;;;;21.25;9.73;;;;;;;29.21;38.16;94054.38;5062922;28;20056;-76
2023/07/24 10:02:29;;;;;;;25.98;11.10;;;;;;;29.37;34.84;94050.84;5063063;28;20088;-76
2023/07/24 10:04:56;;;;;;;20.17;10.05;;;;;;;29.48;35.05;94045.88;5063581;28;20025;-77
2023/07/24 10:07:22;;;;;;;18.73;8.45;;;;;;;29.52;34.76;94032.06;5065049;28;20027;-76
2023/07/24 10:09:49;;;;;;;24.98;9.13;;;;;;;29.57;33.52;94026.03;5063050;28;20044;-80
2023/07/24 10:12:17;;;;;;;23.17;8.13;;;;;;;29.64;33.66;94030.59;5064045;28;20029;-80
2023/07/24 10:14:44;;;;;;;23.83;8.65;;;;;;;29.66;32.58;94036.41;5066657;28;20028;-79
2023/07/24 10:17:09;;;;;;;22.95;9.32;;;;;;;29.67;32.45;94024.97;5066586;28;20063;-80
2023/07/24 10:19:45;;;;;;;14.30;7.65;;;;;;;29.60;32.74;94025.94;5066398;28;20021;-76
2023/07/24 10:22:20;;;;;;;21.55;7.47;;;;;;;29.58;32.71;94025.59;5066382;28;20268;-74
2023/07/24 10:24:47;;;;;;;15.00;8.07;;;;;;;29.59;32.96;94023.63;5064293;28;20029;-75
2023/07/24 10:27:12;;;;;;;20.77;7.88;;;;;;;29.68;33.32;94021.03;5065978;28;20031;-76
2023/07/24 10:29:38;;;;;;;28.67;7.45;;;;;;;29.84;33.43;94025.75;5065979;28;20024;-73
2023/07/24 10:32:16;;;;;;;23.95;7.68;;;;;;;29.95;33.38;94022.72;5066039;28;20051;-74
2023/07/24 10:34:41;;;;;;;19.27;7.85;;;;;;;30.11;33.12;94019.16;5066047;28;20091;-75
2023/07/24 10:37:09;;;;;;;14.88;7.18;;;;;;;30.13;32.58;94019.50;5064733;28;20025;-75
2023/07/24 10:39:41;;;;;;;24.35;7.65;;;;;;;30.14;33.38;94021.78;5065756;28;20201;-76
2023/07/24 10:42:10;;;;;;;19.17;7.68;;;;;;;30.21;33.08;94007.09;5065954;28;20032;-75
2023/07/24 10:44:37;;;;;;;16.70;7.78;;;;;;;30.24;33.46;94019.94;5065999;28;20025;-74
2023/07/24 10:47:03;;;;;;;20.95;7.63;;;;;;;30.32;32.15;94006.81;5065784;28;20027;-76
2023/07/24 10:49:28;;;;;;;23.30;7.35;;;;;;;30.38;32.70;94005.06;5065476;28;20033;-74
2023/07/24 10:51:58;;;;;;;27.83;8.07;;;;;;;30.49;32.68;94010.22;5065740;28;20234;-74
2023/07/24 10:54:24;;;;;;;13.38;7.00;;;;;;;30.47;33.45;93996.16;5065604;28;20045;-76
2023/07/24 10:56:49;;;;;;;10.40;5.25;;;;;;;30.48;32.11;94000.44;5065500;28;20079;-74
2023/07/24 10:59:15;;;;;;;19.35;6.53;;;;;;;30.54;34.02;94004.97;5065601;28;20070;-75
2023/07/24 11:01:41;;;;;;;22.67;7.18;;;;;;;30.60;32.51;93997.72;5065689;28;20049;-74
2023/07/24 11:04:07;;;;;;;15.43;6.75;;;;;;;30.62;32.61;94002.78;5065377;28;20264;-76
2023/07/24 11:06:32;;;;;;;16.65;6.70;;;;;;;30.67;32.25;93987.69;5065482;28;20100;-76
2023/07/24 11:09:00;;;;;;;16.27;6.47;;;;;;;30.71;32.11;93996.63;5065785;28;20028;-77
2023/07/24 11:11:33;;;;;;;11.63;6.35;;;;;;;30.72;31.81;93976.16;5064449;28;20025;-78
2023/07/24 11:14:01;;;;;;;15.88;6.55;;;;;;;30.69;31.59;93990.78;5065610;28;20055;-76
2023/07/24 11:16:26;;;;;;;15.70;7.00;;;;;;;30.76;32.33;93968.56;5065247;28;20029;-72